createdAt,value
2018-09-25T00:00:26.103Z,1015.72
2018-09-25T00:01:26.132Z,1015.76
2018-09-25T00:02:26.160Z,1015.76
2018-09-25T00:03:26.189Z,1015.74
2018-09-25T00:04:26.219Z,1015.77
2018-09-25T00:05:26.246Z,1015.76
2018-09-25T00:06:26.274Z,1015.76
2018-09-25T00:07:26.302Z,1015.77
2018-09-25T00:08:26.330Z,1015.77
2018-09-25T00:09:26.359Z,1015.83
2018-09-25T00:10:26.475Z,1015.86
2018-09-25T00:11:26.415Z,1015.91
2018-09-25T00:12:26.444Z,1015.88
2018-09-25T00:13:26.472Z,1015.89
2018-09-25T00:14:26.500Z,1015.92
2018-09-25T00:15:26.529Z,1015.87
2018-09-25T00:16:26.560Z,1015.85
2018-09-25T00:17:26.587Z,1015.86
2018-09-25T00:18:26.615Z,1015.84
2018-09-25T00:19:26.644Z,1015.84
2018-09-25T00:20:26.671Z,1015.82
2018-09-25T00:21:26.700Z,1015.84
2018-09-25T00:22:26.728Z,1015.80
2018-09-25T00:23:26.756Z,1015.74
2018-09-25T00:24:26.784Z,1015.81
2018-09-25T00:25:26.812Z,1015.80
2018-09-25T00:26:26.841Z,1015.79
2018-09-25T00:27:26.869Z,1015.81
2018-09-25T00:28:26.898Z,1015.75
2018-09-25T00:29:26.927Z,1015.75
2018-09-25T00:30:26.955Z,1015.77
2018-09-25T00:31:26.984Z,1015.78
2018-09-25T00:32:27.014Z,1015.75
2018-09-25T00:33:27.039Z,1015.69
2018-09-25T00:34:27.069Z,1015.78
2018-09-25T00:35:27.096Z,1015.75
2018-09-25T00:36:27.124Z,1015.80
2018-09-25T00:37:27.152Z,1015.79
2018-09-25T00:38:27.181Z,1015.83
2018-09-25T00:39:27.210Z,1015.82
2018-09-25T00:40:27.235Z,1015.83
2018-09-25T00:41:27.270Z,1015.83
2018-09-25T00:42:27.294Z,1015.81
2018-09-25T00:43:27.321Z,1015.80
2018-09-25T00:44:27.349Z,1015.81
2018-09-25T00:45:27.379Z,1015.83
2018-09-25T00:46:27.411Z,1015.83
2018-09-25T00:47:27.434Z,1015.85
2018-09-25T00:48:27.461Z,1015.84
2018-09-25T00:49:27.490Z,1015.92
2018-09-25T00:50:27.518Z,1015.85
2018-09-25T00:51:27.550Z,1015.91
2018-09-25T00:52:27.574Z,1015.86
2018-09-25T00:53:27.603Z,1015.87
2018-09-25T00:54:27.631Z,1015.86
2018-09-25T00:55:27.659Z,1015.85
2018-09-25T00:56:27.686Z,1015.83
2018-09-25T00:57:27.714Z,1015.87
2018-09-25T00:58:27.742Z,1015.84
2018-09-25T00:59:27.771Z,1015.88
2018-09-25T01:00:27.800Z,1015.89
2018-09-25T01:01:27.828Z,1015.88
2018-09-25T01:02:27.855Z,1015.85
2018-09-25T01:03:27.883Z,1015.80
2018-09-25T01:04:27.911Z,1015.72
2018-09-25T01:05:27.941Z,1015.78
2018-09-25T01:06:27.967Z,1015.79
2018-09-25T01:07:27.995Z,1015.76
2018-09-25T01:08:28.023Z,1015.78
2018-09-25T01:09:28.051Z,1015.78
2018-09-25T01:10:28.079Z,1015.77
2018-09-25T01:11:28.106Z,1015.76
2018-09-25T01:12:28.135Z,1015.79
2018-09-25T01:13:28.164Z,1015.81
2018-09-25T01:14:28.192Z,1015.81
2018-09-25T01:15:28.218Z,1015.83
2018-09-25T01:16:28.247Z,1015.86
2018-09-25T01:17:28.275Z,1015.79
2018-09-25T01:18:28.303Z,1015.81
2018-09-25T01:19:28.331Z,1015.82
2018-09-25T01:20:28.410Z,1015.77
2018-09-25T01:21:28.390Z,1015.81
2018-09-25T01:22:28.414Z,1015.73
2018-09-25T01:23:28.443Z,1015.70
2018-09-25T01:24:28.471Z,1015.70
2018-09-25T01:25:28.499Z,1015.68
2018-09-25T01:26:28.527Z,1015.69
2018-09-25T01:27:28.555Z,1015.64
2018-09-25T01:28:28.583Z,1015.65
2018-09-25T01:29:28.611Z,1015.71
2018-09-25T01:30:28.638Z,1015.71
2018-09-25T01:31:28.665Z,1015.72
2018-09-25T01:32:28.694Z,1015.68
2018-09-25T01:33:28.722Z,1015.70
2018-09-25T01:34:28.752Z,1015.69
2018-09-25T01:35:28.778Z,1015.73
2018-09-25T01:36:28.807Z,1015.73
2018-09-25T01:37:28.834Z,1015.76
2018-09-25T01:38:28.863Z,1015.75
2018-09-25T01:39:28.891Z,1015.75
2018-09-25T01:40:28.917Z,1015.74
2018-09-25T01:41:28.947Z,1015.77
2018-09-25T01:42:28.973Z,1015.78
2018-09-25T01:43:29.002Z,1015.80
2018-09-25T01:44:29.028Z,1015.82
2018-09-25T01:45:29.057Z,1015.82
2018-09-25T01:46:29.086Z,1015.84
2018-09-25T01:47:29.114Z,1015.81
2018-09-25T01:48:29.141Z,1015.86
2018-09-25T01:49:29.167Z,1015.85
2018-09-25T01:50:29.196Z,1015.83
2018-09-25T01:51:29.223Z,1015.82
2018-09-25T01:52:29.252Z,1015.84
2018-09-25T01:53:29.279Z,1015.78
2018-09-25T01:54:29.309Z,1015.79
2018-09-25T01:55:29.336Z,1015.82
2018-09-25T01:56:29.365Z,1015.82
2018-09-25T01:57:29.392Z,1015.87
2018-09-25T01:58:29.419Z,1015.83
2018-09-25T01:59:29.447Z,1015.82
2018-09-25T02:00:29.476Z,1015.81
2018-09-25T02:01:29.504Z,1015.78
2018-09-25T02:02:29.532Z,1015.80
2018-09-25T02:03:29.558Z,1015.79
2018-09-25T02:04:29.588Z,1015.81
2018-09-25T02:05:29.614Z,1015.79
2018-09-25T02:06:29.643Z,1015.76
2018-09-25T02:07:29.668Z,1015.79
2018-09-25T02:08:29.697Z,1015.79
2018-09-25T02:09:29.730Z,1015.83
2018-09-25T02:10:29.754Z,1015.82
2018-09-25T02:11:29.781Z,1015.81
2018-09-25T02:12:29.814Z,1015.82
2018-09-25T02:13:29.837Z,1015.80
2018-09-25T02:14:29.866Z,1015.77
2018-09-25T02:15:29.892Z,1015.78
2018-09-25T02:16:29.919Z,1015.83
2018-09-25T02:17:29.948Z,1015.82
2018-09-25T02:18:29.976Z,1015.82
2018-09-25T02:19:30.003Z,1015.86
2018-09-25T02:20:30.031Z,1015.85
2018-09-25T02:21:30.059Z,1015.89
2018-09-25T02:22:30.088Z,1015.84
2018-09-25T02:23:30.114Z,1015.95
2018-09-25T02:24:30.143Z,1015.89
2018-09-25T02:25:30.171Z,1015.91
2018-09-25T02:26:30.198Z,1015.94
2018-09-25T02:27:30.225Z,1015.94
2018-09-25T02:28:30.254Z,1015.91
2018-09-25T02:29:30.282Z,1015.94
2018-09-25T02:30:30.309Z,1015.93
2018-09-25T02:31:30.336Z,1015.95
2018-09-25T02:32:30.363Z,1015.95
2018-09-25T02:33:30.391Z,1015.87
2018-09-25T02:34:30.419Z,1015.92
2018-09-25T02:35:30.446Z,1015.90
2018-09-25T02:36:30.474Z,1015.88
2018-09-25T02:37:30.513Z,1015.92
2018-09-25T02:38:30.529Z,1015.94
2018-09-25T02:39:30.557Z,1015.91
2018-09-25T02:40:30.585Z,1015.90
2018-09-25T02:41:30.614Z,1015.92
2018-09-25T02:42:30.640Z,1015.90
2018-09-25T02:43:30.669Z,1015.90
2018-09-25T02:44:30.695Z,1015.90
2018-09-25T02:45:30.723Z,1015.94
2018-09-25T02:46:30.751Z,1015.93
2018-09-25T02:47:30.778Z,1015.97
2018-09-25T02:48:30.805Z,1015.99
2018-09-25T02:49:30.840Z,1015.97
2018-09-25T02:50:30.864Z,1016.04
2018-09-25T02:51:30.888Z,1016.01
2018-09-25T02:52:30.919Z,1015.95
2018-09-25T02:53:30.944Z,1016.03
2018-09-25T02:54:30.970Z,1016.04
2018-09-25T02:55:30.999Z,1016.05
2018-09-25T02:56:31.026Z,1016.05
2018-09-25T02:57:31.055Z,1016.04
2018-09-25T02:58:31.080Z,1016.01
2018-09-25T02:59:31.108Z,1016.01
2018-09-25T03:00:31.135Z,1016.04
2018-09-25T03:01:31.163Z,1016.04
2018-09-25T03:02:31.193Z,1015.98
2018-09-25T03:03:31.218Z,1015.97
2018-09-25T03:04:31.246Z,1015.99
2018-09-25T03:05:31.283Z,1015.96
2018-09-25T03:06:31.300Z,1015.97
2018-09-25T03:07:31.328Z,1015.93
2018-09-25T03:08:31.354Z,1015.96
2018-09-25T03:09:31.383Z,1015.93
2018-09-25T03:10:31.410Z,1015.93
2018-09-25T03:11:31.437Z,1015.93
2018-09-25T03:12:31.464Z,1015.90
2018-09-25T03:13:31.492Z,1015.91
2018-09-25T03:14:31.522Z,1015.89
2018-09-25T03:15:31.550Z,1015.89
2018-09-25T03:16:31.574Z,1015.91
2018-09-25T03:17:31.604Z,1015.85
2018-09-25T03:18:31.629Z,1015.87
2018-09-25T03:19:31.656Z,1015.86
2018-09-25T03:20:31.690Z,1015.86
2018-09-25T03:21:31.712Z,1015.85
2018-09-25T03:22:31.775Z,1015.80
2018-09-25T03:23:31.770Z,1015.84
2018-09-25T03:24:31.793Z,1015.84
2018-09-25T03:25:31.822Z,1015.78
2018-09-25T03:26:31.849Z,1015.77
2018-09-25T03:27:31.875Z,1015.78
2018-09-25T03:28:31.904Z,1015.79
2018-09-25T03:29:31.934Z,1015.80
2018-09-25T03:30:31.959Z,1015.78
2018-09-25T03:31:31.985Z,1015.77
2018-09-25T03:32:32.013Z,1015.78
2018-09-25T03:33:32.042Z,1015.75
2018-09-25T03:34:32.068Z,1015.74
2018-09-25T03:35:32.095Z,1015.74
2018-09-25T03:36:32.123Z,1015.74
2018-09-25T03:37:32.151Z,1015.72
2018-09-25T03:38:32.181Z,1015.72
2018-09-25T03:39:32.204Z,1015.71
2018-09-25T03:40:32.232Z,1015.68
2018-09-25T03:41:32.260Z,1015.70
2018-09-25T03:42:32.288Z,1015.69
2018-09-25T03:43:32.314Z,1015.68
2018-09-25T03:44:32.341Z,1015.63
2018-09-25T03:45:32.368Z,1015.61
2018-09-25T03:46:32.397Z,1015.58
2018-09-25T03:47:32.424Z,1015.57
2018-09-25T03:48:32.450Z,1015.61
2018-09-25T03:49:32.477Z,1015.62
2018-09-25T03:50:32.506Z,1015.65
2018-09-25T03:51:32.532Z,1015.65
2018-09-25T03:52:32.560Z,1015.68
2018-09-25T03:53:32.588Z,1015.65
2018-09-25T03:54:32.615Z,1015.66
2018-09-25T03:55:32.642Z,1015.66
2018-09-25T03:56:32.669Z,1015.70
2018-09-25T03:57:32.697Z,1015.66
2018-09-25T03:58:32.724Z,1015.65
2018-09-25T03:59:32.814Z,1015.69
2018-09-25T04:00:32.783Z,1015.68
2018-09-25T04:01:32.806Z,1015.62
2018-09-25T04:02:32.834Z,1015.66
2018-09-25T04:03:32.863Z,1015.71
2018-09-25T04:04:32.888Z,1015.68
2018-09-25T04:05:32.916Z,1015.69
2018-09-25T04:06:32.945Z,1015.67
2018-09-25T04:07:32.970Z,1015.67
2018-09-25T04:08:32.999Z,1015.62
2018-09-25T04:09:33.024Z,1015.60
2018-09-25T04:10:33.052Z,1015.65
2018-09-25T04:11:33.079Z,1015.67
2018-09-25T04:12:33.106Z,1015.66
2018-09-25T04:13:33.136Z,1015.67
2018-09-25T04:14:33.161Z,1015.66
2018-09-25T04:15:33.188Z,1015.60
2018-09-25T04:16:33.216Z,1015.63
2018-09-25T04:17:33.244Z,1015.58
2018-09-25T04:18:33.275Z,1015.59
2018-09-25T04:19:33.297Z,1015.64
2018-09-25T04:20:33.324Z,1015.61
2018-09-25T04:21:33.352Z,1015.63
2018-09-25T04:22:33.379Z,1015.59
2018-09-25T04:23:33.407Z,1015.60
2018-09-25T04:24:33.435Z,1015.64
2018-09-25T04:25:33.461Z,1015.64
2018-09-25T04:26:33.491Z,1015.68
2018-09-25T04:27:33.514Z,1015.65
2018-09-25T04:28:33.603Z,1015.67
2018-09-25T04:29:33.570Z,1015.67
2018-09-25T04:30:33.597Z,1015.67
2018-09-25T04:31:33.624Z,1015.65
2018-09-25T04:32:33.651Z,1015.66
2018-09-25T04:33:33.680Z,1015.64
2018-09-25T04:34:33.704Z,1015.71
2018-09-25T04:35:33.735Z,1015.67
2018-09-25T04:36:33.760Z,1015.66
2018-09-25T04:37:33.788Z,1015.69
2018-09-25T04:38:33.817Z,1015.69
2018-09-25T04:39:33.842Z,1015.69
2018-09-25T04:40:33.869Z,1015.66
2018-09-25T04:41:33.897Z,1015.63
2018-09-25T04:42:33.924Z,1015.62
2018-09-25T04:43:33.952Z,1015.65
2018-09-25T04:44:33.979Z,1015.67
2018-09-25T04:45:34.005Z,1015.66
2018-09-25T04:46:34.034Z,1015.68
2018-09-25T04:47:34.059Z,1015.64
2018-09-25T04:48:34.087Z,1015.70
2018-09-25T04:49:34.114Z,1015.64
2018-09-25T04:50:34.144Z,1015.68
2018-09-25T04:51:34.167Z,1015.68
2018-09-25T04:52:34.195Z,1015.69
2018-09-25T04:53:34.223Z,1015.72
2018-09-25T04:54:34.250Z,1015.70
2018-09-25T04:55:34.276Z,1015.72
2018-09-25T04:56:34.313Z,1015.69
2018-09-25T04:57:34.331Z,1015.73
2018-09-25T04:58:34.360Z,1015.73
2018-09-25T04:59:34.386Z,1015.72
2018-09-25T05:00:34.412Z,1015.75
2018-09-25T05:01:34.442Z,1015.73
2018-09-25T05:02:34.467Z,1015.68
2018-09-25T05:03:34.843Z,1015.69
2018-09-25T05:04:34.522Z,1015.69
2018-09-25T05:05:34.548Z,1015.67
2018-09-25T05:06:34.615Z,1015.70
2018-09-25T05:07:34.601Z,1015.69
2018-09-25T05:08:34.628Z,1015.72
2018-09-25T05:09:34.656Z,1015.73
2018-09-25T05:10:34.683Z,1015.73
2018-09-25T05:11:34.709Z,1015.71
2018-09-25T05:12:34.737Z,1015.68
2018-09-25T05:13:34.764Z,1015.71
2018-09-25T05:14:34.822Z,1015.74
2018-09-25T05:15:34.818Z,1015.78
2018-09-25T05:16:34.845Z,1015.77
2018-09-25T05:17:34.872Z,1015.77
2018-09-25T05:18:34.900Z,1015.80
2018-09-25T05:19:34.928Z,1015.79
2018-09-25T05:20:34.953Z,1015.82
2018-09-25T05:21:34.979Z,1015.82
2018-09-25T05:22:35.007Z,1015.81
2018-09-25T05:23:35.080Z,1015.82
2018-09-25T05:24:35.061Z,1015.80
2018-09-25T05:25:35.089Z,1015.80
2018-09-25T05:26:35.118Z,1015.81
2018-09-25T05:27:35.141Z,1015.85
2018-09-25T05:28:35.168Z,1015.90
2018-09-25T05:29:35.196Z,1015.90
2018-09-25T05:30:35.223Z,1015.89
2018-09-25T05:31:35.248Z,1016.00
2018-09-25T05:32:35.276Z,1016.01
2018-09-25T05:33:35.303Z,1016.02
2018-09-25T05:34:35.339Z,1015.98
2018-09-25T05:35:35.356Z,1016.04
2018-09-25T05:36:35.385Z,1016.09
2018-09-25T05:37:35.414Z,1016.09
2018-09-25T05:38:35.438Z,1016.12
2018-09-25T05:39:35.464Z,1016.17
2018-09-25T05:40:35.494Z,1016.14
2018-09-25T05:41:35.519Z,1016.09
2018-09-25T05:42:35.546Z,1016.11
2018-09-25T05:43:35.572Z,1016.15
2018-09-25T05:44:35.599Z,1016.16
2018-09-25T05:45:35.628Z,1016.24
2018-09-25T05:46:35.653Z,1016.24
2018-09-25T05:47:35.679Z,1016.27
2018-09-25T05:48:35.985Z,1016.25
2018-09-25T05:49:35.734Z,1016.27
2018-09-25T05:50:35.761Z,1016.28
2018-09-25T05:51:35.787Z,1016.28
2018-09-25T05:52:35.815Z,1016.26
2018-09-25T05:53:35.842Z,1016.27
2018-09-25T05:54:35.870Z,1016.26
2018-09-25T05:55:35.933Z,1016.27
2018-09-25T05:56:35.924Z,1016.25
2018-09-25T05:57:35.950Z,1016.28
2018-09-25T05:58:35.977Z,1016.33
2018-09-25T05:59:36.004Z,1016.30
2018-09-25T06:00:36.031Z,1016.31
2018-09-25T06:01:36.059Z,1016.31
2018-09-25T06:02:36.086Z,1016.25
2018-09-25T06:03:36.112Z,1016.29
2018-09-25T06:04:36.139Z,1016.28
2018-09-25T06:05:36.167Z,1016.27
2018-09-25T06:06:36.194Z,1016.24
2018-09-25T06:07:36.220Z,1016.13
2018-09-25T06:08:36.248Z,1016.21
2018-09-25T06:09:36.314Z,1016.22
2018-09-25T06:10:36.305Z,1016.20
2018-09-25T06:11:36.329Z,1016.23
2018-09-25T06:12:36.357Z,1016.25
2018-09-25T06:13:36.385Z,1016.25
2018-09-25T06:14:36.412Z,1016.26
2018-09-25T06:15:36.495Z,1016.27
2018-09-25T06:16:36.466Z,1016.27
2018-09-25T06:17:36.494Z,1016.29
2018-09-25T06:18:36.540Z,1016.31
2018-09-25T06:19:36.550Z,1016.27
2018-09-25T06:20:36.577Z,1016.28
2018-09-25T06:21:36.652Z,1016.29
2018-09-25T06:22:36.632Z,1016.30
2018-09-25T06:23:36.659Z,1016.32
2018-09-25T06:24:36.689Z,1016.27
2018-09-25T06:25:36.716Z,1016.26
2018-09-25T06:26:36.745Z,1016.20
2018-09-25T06:27:36.769Z,1016.25
2018-09-25T06:28:36.807Z,1016.22
2018-09-25T06:29:36.826Z,1016.24
2018-09-25T06:30:36.854Z,1016.22
2018-09-25T06:31:36.882Z,1016.24
2018-09-25T06:32:36.909Z,1016.25
2018-09-25T06:33:36.938Z,1016.29
2018-09-25T06:34:37.079Z,1016.30
2018-09-25T06:35:36.993Z,1016.28
2018-09-25T06:36:37.021Z,1016.30
2018-09-25T06:37:37.050Z,1016.36
2018-09-25T06:38:37.077Z,1016.34
2018-09-25T06:39:37.105Z,1016.34
2018-09-25T06:40:37.134Z,1016.32
2018-09-25T06:41:37.162Z,1016.31
2018-09-25T06:42:37.191Z,1016.27
2018-09-25T06:43:37.217Z,1016.30
2018-09-25T06:44:37.247Z,1016.30
2018-09-25T06:45:37.275Z,1016.28
2018-09-25T06:46:37.304Z,1016.29
2018-09-25T06:47:37.334Z,1016.37
2018-09-25T06:48:37.359Z,1016.40
2018-09-25T06:49:37.387Z,1016.35
2018-09-25T06:50:37.416Z,1016.34
2018-09-25T06:51:37.444Z,1016.26
2018-09-25T06:52:37.475Z,1016.26
2018-09-25T06:53:37.500Z,1016.27
2018-09-25T06:54:37.562Z,1016.22
2018-09-25T06:55:37.559Z,1016.26
2018-09-25T06:56:37.586Z,1016.26
2018-09-25T06:57:37.616Z,1016.25
2018-09-25T06:58:37.644Z,1016.22
2018-09-25T06:59:37.671Z,1016.22
2018-09-25T07:00:37.700Z,1016.25
2018-09-25T07:01:37.729Z,1016.27
2018-09-25T07:02:37.784Z,1016.22
2018-09-25T07:03:37.786Z,1016.21
2018-09-25T07:04:37.822Z,1016.21
2018-09-25T07:05:37.844Z,1016.27
2018-09-25T07:06:37.873Z,1016.17
2018-09-25T07:07:37.902Z,1016.17
2018-09-25T07:08:37.931Z,1016.17
2018-09-25T07:09:37.975Z,1016.12
2018-09-25T07:10:38.099Z,1016.15
2018-09-25T07:11:38.018Z,1016.13
2018-09-25T07:12:38.048Z,1016.14
2018-09-25T07:13:38.077Z,1016.07
2018-09-25T07:14:38.107Z,1016.04
2018-09-25T07:15:38.136Z,1016.06
2018-09-25T07:16:38.166Z,1016.05
2018-09-25T07:17:38.301Z,1016.04
2018-09-25T07:18:38.225Z,1016.00
2018-09-25T07:19:38.254Z,1015.98
2018-09-25T07:20:38.284Z,1015.97
2018-09-25T07:21:38.315Z,1015.98
2018-09-25T07:22:38.364Z,1015.96
2018-09-25T07:23:38.374Z,1016.01
2018-09-25T07:24:38.518Z,1015.94
2018-09-25T07:25:38.435Z,1015.83
2018-09-25T07:26:38.465Z,1015.81
2018-09-25T07:27:38.503Z,1015.89
2018-09-25T07:28:38.527Z,1015.86
2018-09-25T07:29:38.555Z,1015.91
2018-09-25T07:30:38.587Z,1015.87
2018-09-25T07:31:38.617Z,1015.82
2018-09-25T07:32:38.647Z,1015.80
2018-09-25T07:33:38.677Z,1015.89
2018-09-25T07:34:38.708Z,1015.89
2018-09-25T07:35:38.738Z,1015.86
2018-09-25T07:36:38.770Z,1015.87
2018-09-25T07:37:38.799Z,1015.91
2018-09-25T07:38:38.831Z,1015.90
2018-09-25T07:39:38.948Z,1015.94
2018-09-25T07:40:38.892Z,1015.94
2018-09-25T07:41:38.927Z,1015.93
2018-09-25T07:42:38.955Z,1015.87
2018-09-25T07:43:39.036Z,1015.96
2018-09-25T07:44:39.017Z,1015.97
2018-09-25T07:45:39.048Z,1015.99
2018-09-25T07:46:39.081Z,1015.95
2018-09-25T07:47:39.113Z,1015.92
2018-09-25T07:48:39.144Z,1015.96
2018-09-25T07:49:39.174Z,1015.94
2018-09-25T07:50:39.206Z,1015.99
2018-09-25T07:51:39.237Z,1015.97
2018-09-25T07:52:39.269Z,1016.01
2018-09-25T07:53:39.300Z,1016.03
2018-09-25T07:54:39.332Z,1016.04
2018-09-25T07:55:39.401Z,1016.04
2018-09-25T07:56:39.396Z,1016.05
2018-09-25T07:57:39.427Z,1016.07
2018-09-25T07:58:39.459Z,1016.11
2018-09-25T07:59:39.491Z,1016.04
2018-09-25T08:00:39.523Z,1016.08
2018-09-25T08:01:39.556Z,1016.13
2018-09-25T08:02:39.588Z,1016.09
2018-09-25T08:03:39.706Z,1016.10
2018-09-25T08:04:39.652Z,1016.07
2018-09-25T08:05:39.684Z,1016.11
2018-09-25T08:06:39.717Z,1016.05
2018-09-25T08:07:39.748Z,1016.11
2018-09-25T08:08:39.780Z,1016.11
2018-09-25T08:09:39.815Z,1016.15
2018-09-25T08:10:39.846Z,1016.16
2018-09-25T08:11:39.879Z,1016.08
2018-09-25T08:12:39.917Z,1016.10
2018-09-25T08:13:39.946Z,1016.06
2018-09-25T08:14:39.977Z,1016.02
2018-09-25T08:15:40.016Z,1016.02
2018-09-25T08:16:40.043Z,1016.00
2018-09-25T08:17:40.078Z,1015.94
2018-09-25T08:18:40.109Z,1015.94
2018-09-25T08:19:40.143Z,1015.94
2018-09-25T08:20:40.175Z,1015.91
2018-09-25T08:21:40.209Z,1015.94
2018-09-25T08:22:40.245Z,1015.93
2018-09-25T08:23:40.275Z,1015.92
2018-09-25T08:24:40.309Z,1015.91
2018-09-25T08:25:40.343Z,1015.87
2018-09-25T08:26:40.376Z,1015.85
2018-09-25T08:27:40.409Z,1015.85
2018-09-25T08:28:40.443Z,1015.92
2018-09-25T08:29:40.521Z,1016.00
2018-09-25T08:30:40.512Z,1016.01
2018-09-25T08:31:40.545Z,1015.98
2018-09-25T08:32:40.579Z,1016.02
2018-09-25T08:33:40.614Z,1016.02
2018-09-25T08:34:40.652Z,1016.02
2018-09-25T08:35:40.683Z,1016.05
2018-09-25T08:36:40.719Z,1016.19
2018-09-25T08:37:40.753Z,1016.30
2018-09-25T08:38:40.846Z,1016.32
2018-09-25T08:39:40.824Z,1016.35
2018-09-25T08:40:40.862Z,1016.30
2018-09-25T08:41:40.897Z,1016.31
2018-09-25T08:42:40.934Z,1016.30
2018-09-25T08:43:40.968Z,1016.37
2018-09-25T08:44:41.007Z,1016.39
2018-09-25T08:45:41.087Z,1016.45
2018-09-25T08:46:41.081Z,1016.41
2018-09-25T08:47:41.118Z,1016.43
2018-09-25T08:48:41.157Z,1016.45
2018-09-25T08:49:41.194Z,1016.43
2018-09-25T08:50:41.232Z,1016.48
2018-09-25T08:51:41.270Z,1016.50
2018-09-25T08:52:41.308Z,1016.53
2018-09-25T08:53:41.372Z,1016.55
2018-09-25T08:54:41.387Z,1016.55
2018-09-25T08:55:41.424Z,1016.59
2018-09-25T08:56:41.465Z,1016.55
2018-09-25T08:57:41.504Z,1016.60
2018-09-25T08:58:41.543Z,1016.68
2018-09-25T08:59:41.582Z,1016.66
2018-09-25T09:00:41.623Z,1016.68
2018-09-25T09:01:41.662Z,1016.67
2018-09-25T09:02:41.701Z,1016.70
2018-09-25T09:03:41.741Z,1016.76
2018-09-25T09:04:41.785Z,1016.74
2018-09-25T09:05:41.830Z,1016.78
2018-09-25T09:06:41.864Z,1016.81
2018-09-25T09:07:41.904Z,1016.83
2018-09-25T09:08:41.944Z,1016.82
2018-09-25T09:09:42.030Z,1016.83
2018-09-25T09:10:42.029Z,1016.93
2018-09-25T09:11:42.068Z,1016.81
2018-09-25T09:12:42.109Z,1016.83
2018-09-25T09:13:42.153Z,1016.87
2018-09-25T09:14:42.193Z,1016.93
2018-09-25T09:15:42.233Z,1016.94
2018-09-25T09:16:42.276Z,1016.92
2018-09-25T09:17:42.318Z,1016.93
2018-09-25T09:18:42.359Z,1016.99
2018-09-25T09:19:42.432Z,1017.02
2018-09-25T09:20:42.442Z,1016.99
2018-09-25T09:21:42.489Z,1017.01
2018-09-25T09:22:42.527Z,1017.05
2018-09-25T09:23:42.568Z,1017.04
2018-09-25T09:24:42.612Z,1017.08
2018-09-25T09:25:42.654Z,1017.09
2018-09-25T09:26:42.697Z,1017.08
2018-09-25T09:27:42.738Z,1017.03
2018-09-25T09:28:42.784Z,1017.04
2018-09-25T09:29:42.823Z,1017.03
2018-09-25T09:30:42.867Z,1017.06
2018-09-25T09:31:42.909Z,1017.09
2018-09-25T09:32:43.089Z,1017.05
2018-09-25T09:33:42.995Z,1017.10
2018-09-25T09:34:43.040Z,1017.05
2018-09-25T09:35:43.086Z,1017.10
2018-09-25T09:36:43.126Z,1017.09
2018-09-25T09:37:43.169Z,1017.11
2018-09-25T09:38:43.213Z,1017.12
2018-09-25T09:39:43.256Z,1017.18
2018-09-25T09:40:43.301Z,1017.16
2018-09-25T09:41:43.551Z,1017.22
2018-09-25T09:42:43.393Z,1017.11
2018-09-25T09:43:43.435Z,1017.05
2018-09-25T09:44:43.483Z,1017.12
2018-09-25T09:45:46.225Z,1017.15
2018-09-25T09:46:43.564Z,1017.21
2018-09-25T09:47:43.607Z,1017.18
2018-09-25T09:48:43.652Z,1017.22
2018-09-25T09:49:43.696Z,1017.23
2018-09-25T09:50:43.741Z,1017.28
2018-09-25T09:51:43.785Z,1017.28
2018-09-25T09:52:43.837Z,1017.33
2018-09-25T09:53:43.876Z,1017.33
2018-09-25T09:54:43.921Z,1017.27
2018-09-25T09:55:43.964Z,1017.38
2018-09-25T09:56:44.009Z,1017.33
2018-09-25T09:57:44.057Z,1017.34
2018-09-25T09:58:44.100Z,1017.34
2018-09-25T09:59:44.143Z,1017.35
2018-09-25T10:00:44.188Z,1017.34
2018-09-25T10:01:44.237Z,1017.40
2018-09-25T10:02:44.281Z,1017.36
2018-09-25T10:03:44.327Z,1017.40
2018-09-25T10:04:44.374Z,1017.46
2018-09-25T10:05:44.421Z,1017.42
2018-09-25T10:06:44.507Z,1017.44
2018-09-25T10:07:44.509Z,1017.49
2018-09-25T10:08:44.555Z,1017.48
2018-09-25T10:09:44.601Z,1017.44
2018-09-25T10:10:44.646Z,1017.50
2018-09-25T10:11:44.692Z,1017.48
2018-09-25T10:12:44.740Z,1017.54
2018-09-25T10:13:44.785Z,1017.54
2018-09-25T10:14:44.832Z,1017.53
2018-09-25T10:15:44.876Z,1017.63
2018-09-25T10:16:44.922Z,1017.49
2018-09-25T10:17:44.969Z,1017.45
2018-09-25T10:18:45.024Z,1017.47
2018-09-25T10:19:45.061Z,1017.59
2018-09-25T10:20:45.108Z,1017.53
2018-09-25T10:21:45.158Z,1017.58
2018-09-25T10:22:45.202Z,1017.62
2018-09-25T10:23:45.246Z,1017.63
2018-09-25T10:24:45.293Z,1017.56
2018-09-25T10:25:45.340Z,1017.55
2018-09-25T10:26:45.388Z,1017.50
2018-09-25T10:27:45.432Z,1017.53
2018-09-25T10:28:45.478Z,1017.54
2018-09-25T10:29:45.525Z,1017.46
2018-09-25T10:30:45.572Z,1017.53
2018-09-25T10:31:45.620Z,1017.55
2018-09-25T10:32:45.664Z,1017.54
2018-09-25T10:33:45.760Z,1017.61
2018-09-25T10:34:45.760Z,1017.62
2018-09-25T10:35:45.806Z,1017.61
2018-09-25T10:36:45.854Z,1017.62
2018-09-25T10:37:45.900Z,1017.53
2018-09-25T10:38:45.948Z,1017.60
2018-09-25T10:39:45.999Z,1017.59
2018-09-25T10:40:46.069Z,1017.64
2018-09-25T10:41:46.092Z,1017.62
2018-09-25T10:42:46.137Z,1017.59
2018-09-25T10:43:46.186Z,1017.50
2018-09-25T10:44:46.233Z,1017.58
2018-09-25T10:45:46.281Z,1017.56
2018-09-25T10:46:46.329Z,1017.62
2018-09-25T10:47:46.375Z,1017.58
2018-09-25T10:48:46.423Z,1017.63
2018-09-25T10:49:46.526Z,1017.65
2018-09-25T10:50:46.519Z,1017.63
2018-09-25T10:51:46.567Z,1017.60
2018-09-25T10:52:46.616Z,1017.61
2018-09-25T10:53:46.665Z,1017.59
2018-09-25T10:54:46.712Z,1017.60
2018-09-25T10:55:46.793Z,1017.60
2018-09-25T10:56:46.806Z,1017.61
2018-09-25T10:57:46.855Z,1017.63
2018-09-25T10:58:46.903Z,1017.71
2018-09-25T10:59:46.950Z,1017.66
2018-09-25T11:00:46.999Z,1017.66
2018-09-25T11:01:47.047Z,1017.59
2018-09-25T11:02:47.119Z,1017.60
2018-09-25T11:03:47.144Z,1017.63
2018-09-25T11:04:47.192Z,1017.59
2018-09-25T11:05:47.240Z,1017.64
2018-09-25T11:06:47.288Z,1017.73
2018-09-25T11:07:47.336Z,1017.68
2018-09-25T11:08:47.386Z,1017.65
2018-09-25T11:09:47.433Z,1017.66
2018-09-25T11:10:47.483Z,1017.63
2018-09-25T11:11:47.530Z,1017.58
2018-09-25T11:12:47.629Z,1017.66
2018-09-25T11:13:47.627Z,1017.71
2018-09-25T11:14:47.678Z,1017.67
2018-09-25T11:15:47.725Z,1017.69
2018-09-25T11:16:47.773Z,1017.71
2018-09-25T11:17:47.879Z,1017.77
2018-09-25T11:18:47.872Z,1017.76
2018-09-25T11:19:47.919Z,1017.74
2018-09-25T11:20:47.968Z,1017.77
2018-09-25T11:21:48.019Z,1017.73
2018-09-25T11:22:48.067Z,1017.78
2018-09-25T11:23:48.114Z,1017.81
2018-09-25T11:24:48.164Z,1017.82
2018-09-25T11:25:48.214Z,1017.82
2018-09-25T11:26:48.262Z,1017.76
2018-09-25T11:27:48.311Z,1017.66
2018-09-25T11:28:48.365Z,1017.66
2018-09-25T11:29:48.409Z,1017.64
2018-09-25T11:30:48.462Z,1017.64
2018-09-25T11:31:48.508Z,1017.61
2018-09-25T11:32:48.557Z,1017.60
2018-09-25T11:33:48.606Z,1017.60
2018-09-25T11:34:48.659Z,1017.59
2018-09-25T11:35:48.705Z,1017.57
2018-09-25T11:36:48.776Z,1017.55
2018-09-25T11:37:49.835Z,1017.57
2018-09-25T11:41:49.024Z,1017.64
2018-09-25T11:42:49.273Z,1017.60
2018-09-25T11:43:49.127Z,1017.59
2018-09-25T11:46:49.293Z,1017.63
2018-09-25T11:47:49.295Z,1017.64
2018-09-25T11:48:49.366Z,1017.55
2018-09-25T11:49:49.439Z,1017.60
2018-09-25T11:50:49.467Z,1017.55
2018-09-25T11:51:49.513Z,1017.49
2018-09-25T11:52:49.599Z,1017.50
2018-09-25T11:53:50.015Z,1017.46
2018-09-25T11:54:49.864Z,1017.53
2018-09-25T11:55:49.688Z,1017.51
2018-09-25T11:56:49.737Z,1017.54
2018-09-25T11:57:49.787Z,1017.51
2018-09-25T11:58:49.837Z,1017.42
2018-09-25T11:59:49.885Z,1017.65
2018-09-25T12:00:49.934Z,1017.55
2018-09-25T12:01:49.984Z,1017.55
2018-09-25T12:02:50.037Z,1017.53
2018-09-25T12:03:50.082Z,1017.54
2018-09-25T12:04:50.133Z,1017.45
2018-09-25T12:05:50.185Z,1017.46
2018-09-25T12:06:50.230Z,1017.52
2018-09-25T12:07:50.280Z,1017.52
2018-09-25T12:08:50.329Z,1017.48
2018-09-25T12:09:50.378Z,1017.52
2018-09-25T12:10:50.427Z,1017.53